Portada
METAR-TAF:

METAR-TAF

Aeroports :

Taixkent, Uzbekistan

latitud: 41-16N, longitud: 069-16E, altitud: 489 m

Observació

L'informe es va fer fa 42 minuts, a les 14:30 UTC
Vent 2 kt amb direcció variable
Temperatura 0°C
Humitat 100%
Pressió 1032 hPa
Visibilitat: 3000 m
Cel cobert a una alçada de 500 ft
neu, boirina

METAR: UTTT 221430Z VRB02KT 3000 -SN BR OVC005 00/00 Q1032 R08R/29//50 NOSIG RMK BASE560

Hora: 20:12 (15:12 UTC)

Pronòstic

L'informe es va fer fa 4 hores i 12 minuts, a les 11:00 UTC
Pronòstic vàlid del 22 a les 12 UTC al 23 a les 12 UTC
Vent 10 kt del Oest
Visibilitat: 3000 m
Cel ennuvolat a una alçada de 400 ft
Cel ennuvolat a una alçada de 2000 ft, Cumulonimbus.
Cel cobert a una alçada de 10000 ft
xàfecs de neu, boirina
Temporalment
l' 22 a les 12 UTC al 22 a les 24 UTC
Visibilitat: 0600 m
a una alçada de 200 ft
neu, boira gebradora

TAF: UTTT 221100Z 2212/2312 28010KT 3000 -SHSN BR BKN004 BKN020CB OVC100 TEMPO 2212/2224 0600 SN FZFG VV002

Observacions i pronòstics meteorològics de més de 4000 aeroports (METAR i TAF).

Les estacions disponibles són els punts grocs i vermells al mapa.

Posi el ratolí al punt desitjat per veure el nom de l'estació.

Feu clic per veure les observacions i els pronòstics meteorològics.

Per canviar el mapa: feu clic els botons verds amb una creu de color negre per apropar; al botó verd amb un guió per allunyar la imatge; o en les fletxes verdes per a mapes adjacents.


METAR-TAF: